createdAt,value
2019-05-26T00:01:02.563Z,4.63
2019-05-26T00:03:30.037Z,4.47
2019-05-26T00:05:57.436Z,4.93
2019-05-26T00:08:25.391Z,5.87
2019-05-26T00:10:52.821Z,5.00
2019-05-26T00:13:20.201Z,5.80
2019-05-26T00:15:47.259Z,5.43
2019-05-26T00:18:15.036Z,5.40
2019-05-26T00:20:43.469Z,5.00
2019-05-26T00:23:10.470Z,5.37
2019-05-26T00:25:38.171Z,5.87
2019-05-26T00:28:05.522Z,5.60
2019-05-26T00:30:32.954Z,5.90
2019-05-26T00:33:01.610Z,7.17
2019-05-26T00:35:29.552Z,5.80
2019-05-26T00:37:57.381Z,5.83
2019-05-26T00:40:24.402Z,7.77
2019-05-26T00:42:51.843Z,6.03
2019-05-26T00:45:19.244Z,6.33
2019-05-26T00:47:46.881Z,7.00
2019-05-26T00:50:16.786Z,6.97
2019-05-26T00:52:43.884Z,6.23
2019-05-26T00:55:12.422Z,5.60
2019-05-26T00:57:39.785Z,5.80
2019-05-26T01:00:07.562Z,5.73
2019-05-26T01:02:35.616Z,6.20
2019-05-26T01:05:02.985Z,5.60
2019-05-26T01:07:30.411Z,5.57
2019-05-26T01:09:57.891Z,5.90
2019-05-26T01:12:26.385Z,5.80
2019-05-26T01:14:54.458Z,5.40
2019-05-26T01:17:22.322Z,5.40
2019-05-26T01:19:50.176Z,5.20
2019-05-26T01:22:17.248Z,5.53
2019-05-26T01:24:44.590Z,5.37
2019-05-26T01:27:11.962Z,5.47
2019-05-26T01:29:39.819Z,6.20
2019-05-26T01:32:07.619Z,6.00
2019-05-26T01:34:35.319Z,6.20
2019-05-26T01:37:03.211Z,5.80
2019-05-26T01:39:30.436Z,6.73
2019-05-26T01:41:58.213Z,8.10
2019-05-26T01:44:26.168Z,9.70
2019-05-26T01:46:53.573Z,8.80
2019-05-26T01:49:21.528Z,7.40
2019-05-26T01:51:49.320Z,7.93
2019-05-26T01:54:16.721Z,7.60
2019-05-26T01:56:44.407Z,9.20
2019-05-26T01:59:12.308Z,7.97
2019-05-26T02:01:39.417Z,8.90
2019-05-26T02:04:07.151Z,8.70
2019-05-26T02:06:34.216Z,8.00
2019-05-26T02:09:04.987Z,8.00
2019-05-26T02:11:32.714Z,8.40
2019-05-26T02:14:00.115Z,8.03
2019-05-26T02:16:28.269Z,8.03
2019-05-26T02:18:56.259Z,9.43
2019-05-26T02:21:25.848Z,9.33
2019-05-26T02:23:53.027Z,9.23
2019-05-26T02:26:20.055Z,8.80
2019-05-26T02:28:47.576Z,8.67
2019-05-26T02:31:14.588Z,8.00
2019-05-26T02:33:42.439Z,7.90
2019-05-26T02:36:10.377Z,7.97
2019-05-26T02:38:37.414Z,7.90
2019-05-26T02:41:04.611Z,7.70
2019-05-26T02:43:32.022Z,7.73
2019-05-26T02:46:00.284Z,8.17
2019-05-26T02:48:28.087Z,7.30
2019-05-26T02:50:56.580Z,7.77
2019-05-26T02:53:24.923Z,8.10
2019-05-26T02:55:53.611Z,8.07
2019-05-26T02:58:20.644Z,7.60
2019-05-26T03:00:48.076Z,8.47
2019-05-26T03:03:15.645Z,8.50
2019-05-26T03:05:44.133Z,8.50
2019-05-26T03:08:12.637Z,8.43
2019-05-26T03:10:40.421Z,8.50
2019-05-26T03:13:07.941Z,9.03
2019-05-26T03:15:35.806Z,8.80
2019-05-26T03:18:05.167Z,7.70
2019-05-26T03:20:37.651Z,9.40
2019-05-26T03:23:06.284Z,8.10
2019-05-26T03:25:35.515Z,9.07
2019-05-26T03:28:03.065Z,7.27
2019-05-26T03:30:31.041Z,7.90
2019-05-26T03:32:58.199Z,8.17
2019-05-26T03:35:25.649Z,8.40
2019-05-26T03:37:52.731Z,8.50
2019-05-26T03:40:20.475Z,8.87
2019-05-26T03:42:47.903Z,7.90
2019-05-26T03:45:24.692Z,9.37
2019-05-26T03:47:52.854Z,8.97
2019-05-26T03:50:19.904Z,8.90
2019-05-26T03:52:46.933Z,10.37
2019-05-26T03:55:14.399Z,9.40
2019-05-26T03:57:41.844Z,8.83
2019-05-26T04:00:09.698Z,10.00
2019-05-26T04:02:36.714Z,8.80
2019-05-26T04:05:04.255Z,9.10
2019-05-26T04:07:31.963Z,9.80
2019-05-26T04:10:05.397Z,8.80
2019-05-26T04:12:29.090Z,10.13
2019-05-26T04:14:56.813Z,10.80
2019-05-26T04:17:24.193Z,9.33
2019-05-26T04:19:52.468Z,9.43
2019-05-26T04:22:19.799Z,10.13
2019-05-26T04:24:47.178Z,9.00
2019-05-26T04:27:14.536Z,9.57
2019-05-26T04:29:42.872Z,9.40
2019-05-26T04:32:10.347Z,9.83
2019-05-26T04:34:37.765Z,9.47
2019-05-26T04:37:05.072Z,9.93
2019-05-26T04:39:32.868Z,9.30
2019-05-26T04:42:02.370Z,9.80
2019-05-26T04:44:30.071Z,9.83
2019-05-26T04:46:57.446Z,10.33
2019-05-26T04:49:24.895Z,9.07
2019-05-26T04:51:52.943Z,9.70
2019-05-26T04:54:20.353Z,9.23
2019-05-26T04:56:47.440Z,9.80
2019-05-26T04:59:14.818Z,9.40
2019-05-26T05:01:42.233Z,9.67
2019-05-26T05:04:10.270Z,10.80
2019-05-26T05:06:37.703Z,10.17
2019-05-26T05:09:06.938Z,12.33
2019-05-26T05:11:34.050Z,11.80
2019-05-26T05:14:03.609Z,11.40
2019-05-26T05:16:31.106Z,11.80
2019-05-26T05:18:58.560Z,12.50
2019-05-26T05:21:26.990Z,12.97
2019-05-26T05:23:54.056Z,13.20
2019-05-26T05:26:21.119Z,13.93
2019-05-26T05:28:48.605Z,14.10
2019-05-26T05:31:17.104Z,14.70
2019-05-26T05:33:44.446Z,14.57
2019-05-26T05:36:11.797Z,15.03
2019-05-26T05:38:39.366Z,15.10
2019-05-26T05:41:07.169Z,16.23
2019-05-26T05:43:35.212Z,14.70
2019-05-26T05:46:03.235Z,13.93
2019-05-26T05:48:30.276Z,14.17
2019-05-26T05:50:58.425Z,15.37
2019-05-26T05:53:25.739Z,14.90
2019-05-26T05:55:52.743Z,14.80
2019-05-26T05:58:20.292Z,16.67
2019-05-26T06:00:47.388Z,15.50
2019-05-26T06:03:18.472Z,17.33
2019-05-26T06:05:45.362Z,15.70
2019-05-26T06:08:12.685Z,17.50
2019-05-26T06:10:40.193Z,16.87
2019-05-26T06:13:07.660Z,17.77
2019-05-26T06:15:35.623Z,17.73
2019-05-26T06:18:03.482Z,19.77
2019-05-26T06:20:30.643Z,18.23
2019-05-26T06:22:58.648Z,17.63
2019-05-26T06:25:26.082Z,18.63
2019-05-26T06:27:53.128Z,18.97
2019-05-26T06:30:21.245Z,18.60
2019-05-26T06:32:49.077Z,18.30
2019-05-26T06:35:17.399Z,18.13
2019-05-26T06:37:44.883Z,19.83
2019-05-26T06:40:12.236Z,17.63
2019-05-26T06:42:39.737Z,18.63
2019-05-26T06:45:06.947Z,18.13
2019-05-26T06:47:33.968Z,17.17
2019-05-26T06:50:02.188Z,18.03
2019-05-26T06:52:29.580Z,20.00
2019-05-26T06:54:57.632Z,18.00
2019-05-26T06:57:24.828Z,17.80
2019-05-26T06:59:51.843Z,18.40
2019-05-26T07:02:19.209Z,19.60
2019-05-26T07:04:47.046Z,19.17
2019-05-26T07:07:14.400Z,19.60
2019-05-26T07:09:41.796Z,20.00
2019-05-26T07:12:09.521Z,20.57
2019-05-26T07:14:36.872Z,19.70
2019-05-26T07:17:04.148Z,19.90
2019-05-26T07:19:31.506Z,19.53
2019-05-26T07:21:58.962Z,18.53
2019-05-26T07:24:29.326Z,20.10
2019-05-26T07:26:57.136Z,18.90
2019-05-26T07:29:24.509Z,21.10
2019-05-26T07:31:51.512Z,20.30
2019-05-26T07:34:18.868Z,19.73
2019-05-26T07:36:46.288Z,19.23
2019-05-26T07:39:13.857Z,20.40
2019-05-26T07:41:40.895Z,20.00
2019-05-26T07:44:09.001Z,20.10
2019-05-26T07:46:36.936Z,21.43
2019-05-26T07:49:04.785Z,19.53
2019-05-26T07:51:32.563Z,18.40
2019-05-26T07:54:00.234Z,20.90
2019-05-26T07:56:28.807Z,19.40
2019-05-26T07:58:56.495Z,19.27
2019-05-26T08:01:24.606Z,18.90
2019-05-26T08:03:52.847Z,20.00
2019-05-26T08:06:20.018Z,19.93
2019-05-26T08:08:47.799Z,19.43
2019-05-26T08:11:15.273Z,18.83
2019-05-26T08:13:42.262Z,18.93
2019-05-26T08:16:09.966Z,19.07
2019-05-26T08:18:37.698Z,19.83
2019-05-26T08:21:05.221Z,19.87
2019-05-26T08:23:32.655Z,19.00
2019-05-26T08:26:00.629Z,17.50
2019-05-26T08:28:28.605Z,19.20
2019-05-26T08:30:56.665Z,17.73
2019-05-26T08:33:24.111Z,18.27
2019-05-26T08:35:52.312Z,17.13
2019-05-26T08:38:19.364Z,16.30
2019-05-26T08:40:46.846Z,17.70
2019-05-26T08:43:14.223Z,17.90
2019-05-26T08:45:41.574Z,16.40
2019-05-26T08:48:09.076Z,16.50
2019-05-26T08:50:36.724Z,16.63
2019-05-26T08:53:04.520Z,17.10
2019-05-26T08:55:32.256Z,17.37
2019-05-26T08:57:59.601Z,17.33
2019-05-26T09:00:27.077Z,15.93
2019-05-26T09:02:54.135Z,16.00
2019-05-26T09:05:21.419Z,15.17
2019-05-26T09:07:49.139Z,15.20
2019-05-26T09:10:16.667Z,15.00
2019-05-26T09:12:57.871Z,15.47
2019-05-26T09:15:15.996Z,15.90
2019-05-26T09:17:43.927Z,16.07
2019-05-26T09:20:12.915Z,16.70
2019-05-26T09:22:41.079Z,16.27
2019-05-26T09:25:09.098Z,16.90
2019-05-26T09:27:36.576Z,15.30
2019-05-26T09:30:04.199Z,15.93
2019-05-26T09:32:31.350Z,15.70
2019-05-26T09:34:59.174Z,17.23
2019-05-26T09:37:26.633Z,16.30
2019-05-26T09:39:54.411Z,16.53
2019-05-26T09:42:22.475Z,14.70
2019-05-26T09:47:31.607Z,16.63
2019-05-26T09:49:59.608Z,15.37
2019-05-26T09:52:26.743Z,15.90
2019-05-26T09:54:53.823Z,16.33
2019-05-26T09:57:23.308Z,15.40
2019-05-26T09:59:50.335Z,16.80
2019-05-26T10:02:17.370Z,16.17
2019-05-26T10:04:45.629Z,16.40
2019-05-26T10:07:15.804Z,15.43
2019-05-26T10:09:42.740Z,16.20
2019-05-26T10:12:10.117Z,15.13
2019-05-26T10:14:37.215Z,14.23
2019-05-26T10:17:04.687Z,15.63
2019-05-26T10:19:33.054Z,15.07
2019-05-26T10:22:01.396Z,14.20
2019-05-26T10:24:53.311Z,12.20
2019-05-26T10:27:21.317Z,11.90
2019-05-26T10:29:48.958Z,10.77
2019-05-26T10:32:16.206Z,9.30
2019-05-26T10:34:43.905Z,9.67
2019-05-26T10:37:14.492Z,8.90
2019-05-26T10:39:45.048Z,9.20
2019-05-26T10:42:11.935Z,8.97
2019-05-26T10:44:39.002Z,8.00
2019-05-26T10:47:06.441Z,7.30
2019-05-26T10:49:34.059Z,6.87
2019-05-26T10:52:01.871Z,5.43
2019-05-26T10:54:29.158Z,4.90
2019-05-26T10:56:56.249Z,5.17
2019-05-26T10:59:23.355Z,4.53
2019-05-26T11:01:50.409Z,5.17
2019-05-26T11:04:18.449Z,5.00
2019-05-26T11:06:45.780Z,5.00
2019-05-26T11:09:13.204Z,4.23
2019-05-26T11:11:40.221Z,4.93
2019-05-26T11:14:07.577Z,5.63
2019-05-26T11:16:34.696Z,4.50
2019-05-26T11:19:02.243Z,4.60
2019-05-26T11:21:29.725Z,4.30
2019-05-26T11:23:57.142Z,5.47
2019-05-26T11:26:24.926Z,3.80
2019-05-26T11:28:52.750Z,4.47
2019-05-26T11:31:20.203Z,5.37
2019-05-26T11:33:47.860Z,9.50
2019-05-26T11:36:15.312Z,23.40
2019-05-26T11:38:42.368Z,6.13
2019-05-26T11:41:10.084Z,4.20
2019-05-26T11:43:38.177Z,3.73
2019-05-26T11:46:06.552Z,3.60
2019-05-26T11:48:34.731Z,3.83
2019-05-26T11:51:01.812Z,4.20
2019-05-26T11:53:28.863Z,3.30
2019-05-26T11:55:56.405Z,4.27
2019-05-26T11:58:23.481Z,3.90
2019-05-26T12:00:51.689Z,4.07
2019-05-26T12:03:19.331Z,3.47
2019-05-26T12:05:46.718Z,3.97
2019-05-26T12:08:14.457Z,4.30
2019-05-26T12:10:42.190Z,4.23
2019-05-26T12:13:09.234Z,3.97
2019-05-26T12:15:40.525Z,3.67
2019-05-26T12:18:08.676Z,4.13
2019-05-26T12:20:36.139Z,3.77
2019-05-26T12:23:03.971Z,4.13
2019-05-26T12:25:32.413Z,4.03
2019-05-26T12:27:59.896Z,5.03
2019-05-26T12:30:27.384Z,4.27
2019-05-26T12:32:54.603Z,3.83
2019-05-26T12:35:23.962Z,3.53
2019-05-26T12:37:51.290Z,4.07
2019-05-26T12:40:18.955Z,4.00
2019-05-26T12:42:46.055Z,4.10
2019-05-26T12:45:13.817Z,4.10
2019-05-26T12:47:41.524Z,4.70
2019-05-26T12:50:09.027Z,15.70
2019-05-26T12:52:36.623Z,13.77
2019-05-26T12:55:08.748Z,5.20
2019-05-26T12:57:34.080Z,3.70
2019-05-26T13:00:01.137Z,3.40
2019-05-26T13:02:28.887Z,4.17
2019-05-26T13:04:56.442Z,7.47
2019-05-26T13:07:24.765Z,8.17
2019-05-26T13:09:52.169Z,5.20
2019-05-26T13:12:19.906Z,5.50
2019-05-26T13:14:47.465Z,4.10
2019-05-26T13:17:14.934Z,4.60
2019-05-26T13:19:41.963Z,4.67
2019-05-26T13:22:09.420Z,3.80
2019-05-26T13:24:36.591Z,4.23
2019-05-26T13:27:03.935Z,3.60
2019-05-26T13:29:31.298Z,3.43
2019-05-26T13:31:59.364Z,3.57
2019-05-26T13:34:26.779Z,3.27
2019-05-26T13:36:54.577Z,4.10
2019-05-26T13:39:21.668Z,3.63
2019-05-26T13:41:48.758Z,3.37
2019-05-26T13:44:16.407Z,3.77
2019-05-26T13:46:44.214Z,3.50
2019-05-26T13:49:11.271Z,3.23
2019-05-26T13:51:38.674Z,3.00
2019-05-26T13:54:06.055Z,3.20
2019-05-26T13:56:33.714Z,3.00
2019-05-26T13:59:05.445Z,3.67
2019-05-26T14:01:32.538Z,3.17
2019-05-26T14:03:59.636Z,2.90
2019-05-26T14:06:27.080Z,3.53
2019-05-26T14:08:54.536Z,3.97
2019-05-26T14:11:21.639Z,3.03
2019-05-26T14:13:49.422Z,2.87
2019-05-26T14:16:17.101Z,3.00
2019-05-26T14:18:45.399Z,3.83
2019-05-26T14:21:12.974Z,3.23
2019-05-26T14:23:40.301Z,4.00
2019-05-26T14:26:07.770Z,3.93
2019-05-26T14:28:34.869Z,3.80
2019-05-26T14:31:02.783Z,3.37
2019-05-26T14:33:29.821Z,3.77
2019-05-26T14:35:57.508Z,4.80
2019-05-26T14:38:24.902Z,3.90
2019-05-26T14:40:52.283Z,4.00
2019-05-26T14:43:19.934Z,4.83
2019-05-26T14:45:53.525Z,4.43
2019-05-26T14:48:16.353Z,4.00
2019-05-26T14:50:44.157Z,4.90
2019-05-26T14:53:11.210Z,4.30
2019-05-26T14:55:38.300Z,4.50
2019-05-26T14:58:14.804Z,4.53
2019-05-26T15:00:34.743Z,4.97
2019-05-26T15:03:02.465Z,5.20
2019-05-26T15:05:29.772Z,4.73
2019-05-26T15:07:57.805Z,4.47
2019-05-26T15:10:25.883Z,4.77
2019-05-26T15:12:54.408Z,4.93
2019-05-26T15:15:21.658Z,4.77
2019-05-26T15:17:49.105Z,4.87
2019-05-26T15:20:18.638Z,5.30
2019-05-26T15:22:46.052Z,5.60
2019-05-26T15:25:13.825Z,5.70
2019-05-26T15:27:41.507Z,4.53
2019-05-26T15:30:09.539Z,4.23
2019-05-26T15:32:37.404Z,5.33
2019-05-26T15:35:04.488Z,4.60
2019-05-26T15:37:32.007Z,5.30
2019-05-26T15:39:59.130Z,5.13
2019-05-26T15:42:26.553Z,4.47
2019-05-26T15:44:53.955Z,4.93
2019-05-26T15:47:21.737Z,4.60
2019-05-26T15:49:49.160Z,4.63
2019-05-26T15:52:16.942Z,5.53
2019-05-26T15:54:44.351Z,4.50
2019-05-26T15:57:12.249Z,4.53
2019-05-26T15:59:40.121Z,4.50
2019-05-26T16:02:07.242Z,4.57
2019-05-26T16:04:35.497Z,4.20
2019-05-26T16:07:02.706Z,4.40
2019-05-26T16:09:30.178Z,4.50
2019-05-26T16:11:58.013Z,4.53
2019-05-26T16:14:25.908Z,4.60
2019-05-26T16:16:53.382Z,4.30
2019-05-26T16:19:21.447Z,4.00
2019-05-26T16:21:48.660Z,3.73
2019-05-26T16:24:16.516Z,4.00
2019-05-26T16:26:43.643Z,4.50
2019-05-26T16:29:11.141Z,4.10
2019-05-26T16:31:38.860Z,4.37
2019-05-26T16:34:06.317Z,4.10
2019-05-26T16:36:34.190Z,4.17
2019-05-26T16:39:03.719Z,4.43
2019-05-26T16:41:31.688Z,4.50
2019-05-26T16:43:59.559Z,4.80
2019-05-26T16:46:26.607Z,4.53
2019-05-26T16:48:55.030Z,5.50
2019-05-26T16:51:23.312Z,4.50
2019-05-26T16:53:51.080Z,4.83
2019-05-26T16:56:19.090Z,4.53
2019-05-26T16:58:46.453Z,4.37
2019-05-26T17:01:13.867Z,4.70
2019-05-26T17:03:41.527Z,4.37
2019-05-26T17:06:08.704Z,4.37
2019-05-26T17:08:36.026Z,4.50
2019-05-26T17:11:03.263Z,4.33
2019-05-26T17:13:33.168Z,4.60
2019-05-26T17:15:59.904Z,4.10
2019-05-26T17:18:27.705Z,4.00
2019-05-26T17:20:54.782Z,4.87
2019-05-26T17:23:22.607Z,4.60
2019-05-26T17:25:49.723Z,4.57
2019-05-26T17:28:16.802Z,4.70
2019-05-26T17:30:44.177Z,4.50
2019-05-26T17:33:11.583Z,4.07
2019-05-26T17:35:39.349Z,4.20
2019-05-26T17:38:07.257Z,5.10
2019-05-26T17:40:34.763Z,3.97
2019-05-26T17:43:03.756Z,3.90
2019-05-26T17:45:31.202Z,4.33
2019-05-26T17:47:59.367Z,4.10
2019-05-26T17:50:26.731Z,4.00
2019-05-26T17:52:54.127Z,3.33
2019-05-26T17:55:21.647Z,4.10
2019-05-26T17:57:49.011Z,4.00
2019-05-26T18:00:16.884Z,3.60
2019-05-26T18:02:43.924Z,3.90
2019-05-26T18:05:11.420Z,3.30
2019-05-26T18:07:39.530Z,3.73
2019-05-26T18:10:08.628Z,3.57
2019-05-26T18:12:35.961Z,3.50
2019-05-26T18:15:03.382Z,2.90
2019-05-26T18:17:45.849Z,3.57
2019-05-26T18:20:00.487Z,3.47
2019-05-26T18:22:27.647Z,3.80
2019-05-26T18:24:58.417Z,3.77
2019-05-26T18:27:24.458Z,4.00
2019-05-26T18:29:52.331Z,3.80
2019-05-26T18:32:19.380Z,4.10
2019-05-26T18:34:47.173Z,4.20
2019-05-26T18:37:14.607Z,4.63
2019-05-26T18:39:42.686Z,4.50
2019-05-26T18:42:10.893Z,4.53
2019-05-26T18:44:38.571Z,4.63
2019-05-26T18:47:05.677Z,4.30
2019-05-26T18:49:33.294Z,4.47
2019-05-26T18:52:00.376Z,4.60
2019-05-26T18:54:28.533Z,4.80
2019-05-26T18:56:56.177Z,4.47
2019-05-26T18:59:23.277Z,4.17
2019-05-26T19:01:50.576Z,4.27
2019-05-26T19:04:18.732Z,3.83
2019-05-26T19:06:46.160Z,4.30
2019-05-26T19:09:13.577Z,4.97
2019-05-26T19:11:41.427Z,4.07
2019-05-26T19:14:10.278Z,4.50
2019-05-26T19:16:38.104Z,4.50
2019-05-26T19:19:06.053Z,3.90
2019-05-26T19:21:34.476Z,4.43
2019-05-26T19:24:01.546Z,5.00
2019-05-26T19:26:32.799Z,4.63
2019-05-26T19:29:01.461Z,5.00
2019-05-26T19:31:29.258Z,4.80
2019-05-26T19:33:57.725Z,4.80
2019-05-26T19:36:25.535Z,4.50
2019-05-26T19:38:52.604Z,4.63
2019-05-26T19:41:19.663Z,4.70
2019-05-26T19:43:46.766Z,5.10
2019-05-26T19:46:14.170Z,4.77
2019-05-26T19:48:41.789Z,4.27
2019-05-26T19:51:09.577Z,4.60
2019-05-26T19:53:37.444Z,5.27
2019-05-26T19:56:04.527Z,5.87
2019-05-26T19:58:32.813Z,4.47
2019-05-26T20:01:00.339Z,6.07
2019-05-26T20:03:28.465Z,5.53
2019-05-26T20:05:55.945Z,5.63
2019-05-26T20:08:23.689Z,4.60
2019-05-26T20:10:51.037Z,4.93
2019-05-26T20:13:18.709Z,5.43
2019-05-26T20:15:46.780Z,5.07
2019-05-26T20:18:14.227Z,5.50
2019-05-26T20:20:42.026Z,5.10
2019-05-26T20:23:09.809Z,5.50
2019-05-26T20:25:36.893Z,5.60
2019-05-26T20:28:04.687Z,5.10
2019-05-26T20:30:33.083Z,4.83
2019-05-26T20:33:01.100Z,4.90
2019-05-26T20:35:29.123Z,5.13
2019-05-26T20:37:56.255Z,5.07
2019-05-26T20:40:23.311Z,5.10
2019-05-26T20:42:50.739Z,5.70
2019-05-26T20:45:18.336Z,5.20
2019-05-26T20:47:45.786Z,4.70
2019-05-26T20:50:28.163Z,5.50
2019-05-26T20:52:42.731Z,5.43
2019-05-26T20:55:10.685Z,5.23
2019-05-26T20:57:38.828Z,5.03
2019-05-26T21:00:07.472Z,5.57
2019-05-26T21:02:34.939Z,5.20
2019-05-26T21:05:02.044Z,4.80
2019-05-26T21:07:29.100Z,5.33
2019-05-26T21:09:56.405Z,5.07
2019-05-26T21:12:23.766Z,5.10
2019-05-26T21:14:51.203Z,4.77
2019-05-26T21:17:18.924Z,6.10
2019-05-26T21:19:46.356Z,5.53
2019-05-26T21:22:13.402Z,5.20
2019-05-26T21:24:41.249Z,4.80
2019-05-26T21:27:08.416Z,5.40
2019-05-26T21:29:35.438Z,5.17
2019-05-26T21:32:02.793Z,5.33
2019-05-26T21:34:29.855Z,5.40
2019-05-26T21:36:56.914Z,5.30
2019-05-26T21:39:24.807Z,5.80
2019-05-26T21:41:52.558Z,4.97
2019-05-26T21:44:19.691Z,5.83
2019-05-26T21:46:46.791Z,5.80
2019-05-26T21:49:14.921Z,5.80
2019-05-26T21:51:43.378Z,4.93
2019-05-26T21:54:10.441Z,5.50
2019-05-26T21:56:38.300Z,5.60
2019-05-26T21:59:05.314Z,4.90
2019-05-26T22:01:32.357Z,4.60
2019-05-26T22:04:00.071Z,4.83
2019-05-26T22:06:27.839Z,4.60
2019-05-26T22:08:54.946Z,4.80
2019-05-26T22:11:22.617Z,4.90
2019-05-26T22:13:50.370Z,4.93
2019-05-26T22:16:17.771Z,4.70
2019-05-26T22:18:45.189Z,5.30
2019-05-26T22:21:12.398Z,4.90
2019-05-26T22:23:40.309Z,4.37
2019-05-26T22:26:08.504Z,5.33
2019-05-26T22:28:35.532Z,3.97
2019-05-26T22:31:02.539Z,4.80
2019-05-26T22:33:29.850Z,4.37
2019-05-26T22:35:57.260Z,4.77
2019-05-26T22:38:24.550Z,4.10
2019-05-26T22:40:52.343Z,4.57
2019-05-26T22:43:19.790Z,4.63
2019-05-26T22:45:47.191Z,4.33
2019-05-26T22:48:14.605Z,3.83
2019-05-26T22:50:42.462Z,4.77
2019-05-26T22:53:09.885Z,5.20
2019-05-26T22:55:37.649Z,4.50
2019-05-26T22:58:04.942Z,4.30
2019-05-26T23:00:31.995Z,4.00
2019-05-26T23:02:59.360Z,4.40
2019-05-26T23:05:27.065Z,5.63
2019-05-26T23:07:54.829Z,4.60
2019-05-26T23:10:22.292Z,4.40
2019-05-26T23:12:50.127Z,4.60
2019-05-26T23:15:17.401Z,5.03
2019-05-26T23:17:45.763Z,4.53
2019-05-26T23:20:14.360Z,4.50
2019-05-26T23:22:42.255Z,4.57
2019-05-26T23:25:09.367Z,4.53
2019-05-26T23:27:37.071Z,4.53
2019-05-26T23:30:04.957Z,4.70
2019-05-26T23:32:32.664Z,4.93
2019-05-26T23:35:00.348Z,4.60
2019-05-26T23:37:28.100Z,5.40
2019-05-26T23:39:55.566Z,4.90
2019-05-26T23:42:22.620Z,4.83
2019-05-26T23:44:50.116Z,4.43
2019-05-26T23:47:17.509Z,3.77
2019-05-26T23:49:44.901Z,4.23
2019-05-26T23:52:12.654Z,4.50
2019-05-26T23:54:40.064Z,4.33
2019-05-26T23:57:08.095Z,4.00
2019-05-26T23:59:35.460Z,3.60
